Time;durP1;ratioP1;P1;durP2;ratioP2;P2;SDS_P1;SDS_P2;PMS_P1;PMS_P2;Temp;Humidity;BMP_temperature;BMP_pressure;BME280_temperature;BME280_humidity;BME280_pressure;Samples;Min_cycle;Max_cycle;Signal;HPM_P1;HPM_P2
2022/07/15 00:20:15;;;;;;;704.73;671.87;;;12.00;99.90;;;;;;5031668;28;20570;-84
2022/07/15 00:29:45;;;;;;;;;;;;;;;;;;;;;
2022/07/15 00:33:11;;;;;;;664.90;634.40;;;12.10;99.90;;;;;;4952723;29;20475;-84
2022/07/15 00:42:43;;;;;;;534.17;512.60;;;12.50;99.90;;;;;;4936857;28;20478;-85
2022/07/15 00:45:38;;;;;;;541.77;519.77;;;12.60;99.90;;;;;;4973494;28;20457;-84
2022/07/15 00:54:35;;;;;;;441.00;424.70;;;12.90;99.90;;;;;;5010461;28;20436;-84
2022/07/15 00:58:05;;;;;;;460.90;443.70;;;13.00;99.90;;;;;;5033244;28;20455;-85
2022/07/15 01:05:07;;;;;;;;;;;;;;;;;;;;;
2022/07/15 01:07:57;;;;;;;367.37;355.43;;;13.20;99.90;;;;;;5020146;28;20460;-84
2022/07/15 01:11:07;;;;;;;377.63;364.27;;;13.20;99.90;;;;;;5034308;28;20467;-85
2022/07/15 01:20:13;;;;;;;386.87;373.30;;;13.40;99.90;;;;;;5029987;28;20456;-84
2022/07/15 01:23:04;;;;;;;350.23;338.63;;;13.50;99.90;;;;;;5033013;28;21008;-85
2022/07/15 01:25:55;;;;;;;314.20;303.83;;;13.60;99.90;;;;;;5033170;28;20455;-84
2022/07/15 01:29:09;;;;;;;293.50;284.23;;;13.70;99.90;;;;;;5033012;28;20949;-84
2022/07/15 01:41:26;;;;;;;279.03;269.87;;;13.80;99.90;;;;;;4985468;28;20460;-85
2022/07/15 01:51:41;;;;;;;248.10;239.57;;;14.10;99.90;;;;;;5008283;28;20472;-85
2022/07/15 01:55:05;;;;;;;281.30;272.23;;;14.10;99.90;;;;;;5033389;28;20480;-85
2022/07/15 02:04:23;;;;;;;180.87;174.80;;;14.20;99.60;;;;;;4945822;29;21087;-83
2022/07/15 02:13:59;;;;;;;249.33;241.60;;;13.90;99.20;;;;;;4969352;28;20947;-85
2022/07/15 02:16:52;;;;;;;340.50;329.50;;;13.80;99.90;;;;;;4971638;28;20452;-85
2022/07/15 02:35:46;;;;;;;485.33;467.03;;;13.40;99.90;;;;;;4955457;29;20968;-85
2022/07/15 02:45:28;;;;;;;470.47;452.27;;;13.40;99.90;;;;;;4955640;29;21023;-84
2022/07/15 02:58:00;;;;;;;456.30;439.80;;;13.10;99.90;;;;;;4943723;28;20455;-84
2022/07/15 03:07:37;;;;;;;616.67;590.43;;;12.80;99.90;;;;;;5023944;28;20452;-84
2022/07/15 03:10:34;;;;;;;636.20;608.87;;;12.70;99.90;;;;;;5035666;28;20479;-85
2022/07/15 03:19:58;;;;;;;623.70;597.40;;;12.60;99.90;;;;;;4930037;29;20484;-86
2022/07/15 03:26:40;;;;;;;544.00;522.53;;;12.60;99.90;;;;;;4880102;29;20447;-85
2022/07/15 03:29:43;;;;;;;504.53;485.77;;;12.70;99.90;;;;;;4961751;28;20476;-85
2022/07/15 03:32:35;;;;;;;522.10;502.43;;;12.60;99.90;;;;;;5015497;28;20531;-86
2022/07/15 03:42:08;;;;;;;537.40;517.00;;;12.40;99.90;;;;;;4952584;28;20534;-85
2022/07/15 03:48:39;;;;;;;;;;;;;;;;;;;;;
2022/07/15 03:58:02;;;;;;;701.03;667.20;;;12.70;99.90;;;;;;4955507;28;20464;-85
2022/07/15 04:01:04;;;;;;;623.50;594.43;;;12.90;99.90;;;;;;5015717;28;20457;-85
2022/07/15 04:07:17;;;;;;;487.90;466.30;;;13.30;99.90;;;;;;5015146;28;20441;-84
2022/07/15 04:10:29;;;;;;;;;;;;;;;;;;;;;
2022/07/15 04:13:39;;;;;;;431.13;414.23;;;13.30;99.90;;;;;;5015004;28;20488;-84
2022/07/15 04:16:37;;;;;;;414.27;398.07;;;13.40;99.90;;;;;;5014999;28;20888;-84
2022/07/15 04:22:18;;;;;;;352.00;340.10;;;13.40;99.90;;;;;;4992876;28;20481;-85
2022/07/15 04:24:53;;;;;;;328.47;317.90;;;13.40;99.90;;;;;;5015088;28;20495;-84
2022/07/15 04:27:25;;;;;;;249.13;240.73;;;13.50;99.90;;;;;;5014721;28;20519;-84
2022/07/15 04:29:58;;;;;;;286.80;276.60;;;13.50;99.90;;;;;;5015342;28;20960;-85
2022/07/15 04:32:32;;;;;;;297.50;287.67;;;13.50;99.50;;;;;;5014741;28;20469;-84
2022/07/15 04:35:04;;;;;;;205.03;198.27;;;13.70;99.20;;;;;;5014890;28;20849;-85
2022/07/15 04:37:40;;;;;;;190.00;183.63;;;13.70;98.50;;;;;;5014669;28;20461;-85
2022/07/15 04:40:24;;;;;;;132.80;128.00;;;13.80;97.60;;;;;;5014603;28;20457;-85
2022/07/15 04:42:58;;;;;;;119.07;114.20;;;13.80;97.00;;;;;;5014832;28;20484;-85
2022/07/15 04:45:29;;;;;;;50.40;48.03;;;14.00;96.50;;;;;;5015738;28;20533;-84
2022/07/15 04:50:51;;;;;;;35.30;33.67;;;14.20;94.40;;;;;;5014647;28;20563;-85
2022/07/15 04:53:22;;;;;;;55.57;52.80;;;14.10;94.00;;;;;;5013655;28;20954;-85
2022/07/15 04:55:51;;;;;;;31.73;29.50;;;14.10;94.00;;;;;;5014450;28;20453;-85
2022/07/15 04:58:24;;;;;;;30.63;28.73;;;14.10;92.70;;;;;;5014083;28;20460;-84
2022/07/15 05:01:02;;;;;;;14.53;13.30;;;14.20;92.70;;;;;;5014731;28;20456;-84
2022/07/15 05:03:39;;;;;;;20.67;18.77;;;14.20;91.50;;;;;;5013419;28;20850;-85
2022/07/15 05:09:53;;;;;;;8.13;6.37;;;14.40;91.90;;;;;;4971607;28;20459;-84
2022/07/15 05:16:03;;;;;;;12.43;9.97;;;14.50;91.30;;;;;;5013144;28;20453;-86
2022/07/15 05:22:05;;;;;;;15.43;14.00;;;14.50;90.00;;;;;;4933054;29;20481;-85
2022/07/15 05:25:22;;;;;;;6.90;5.70;;;14.60;90.40;;;;;;5010927;28;20461;-85
2022/07/15 05:28:28;;;;;;;10.00;4.43;;;14.70;88.90;;;;;;4994122;28;20461;-85
2022/07/15 05:34:44;;;;;;;13.13;5.00;;;14.70;86.80;;;;;;5012921;28;20457;-85
2022/07/15 05:37:36;;;;;;;10.90;3.63;;;14.90;86.30;;;;;;5012993;28;20475;-85
2022/07/15 05:40:39;;;;;;;9.73;4.13;;;15.00;83.50;;;;;;5013249;28;20457;-85
2022/07/15 05:49:39;;;;;;;13.20;3.53;;;15.20;81.70;;;;;;5008332;28;20499;-85
2022/07/15 05:58:44;;;;;;;5.40;3.00;;;15.20;82.80;;;;;;5011563;28;20811;-85
2022/07/15 06:39:44;;;;;;;11.50;3.27;;;18.30;56.70;;;;;;4878910;29;20537;-85
2022/07/15 06:45:26;;;;;;;7.97;3.13;;;18.60;51.90;;;;;;4975866;28;20459;-82
2022/07/15 06:51:12;;;;;;;8.60;3.70;;;19.10;49.30;;;;;;5056533;28;20460;-83
2022/07/15 06:54:13;;;;;;;8.50;2.80;;;19.20;46.10;;;;;;4957505;28;20486;-83
2022/07/15 06:57:02;;;;;;;8.70;2.43;;;19.10;44.70;;;;;;5044093;28;20851;-83
2022/07/15 06:59:50;;;;;;;10.63;1.90;;;19.70;42.00;;;;;;5057678;28;20509;-83
2022/07/15 07:02:30;;;;;;;10.80;2.00;;;19.40;43.80;;;;;;5056906;28;20473;-83
2022/07/15 07:05:31;;;;;;;5.10;1.70;;;19.50;42.80;;;;;;5058718;28;20461;-82
2022/07/15 07:08:40;;;;;;;14.10;2.27;;;19.80;40.60;;;;;;5056460;28;20486;-83
2022/07/15 07:11:40;;;;;;;6.93;2.23;;;19.70;40.30;;;;;;5058023;28;20456;-83
2022/07/15 07:14:30;;;;;;;5.00;1.90;;;19.50;38.90;;;;;;5056525;28;20510;-84
2022/07/15 07:21:07;;;;;;;;;;;;;;;;;;;;;
2022/07/15 07:24:02;;;;;;;6.10;1.47;;;20.60;35.10;;;;;;5055452;28;20893;-83
2022/07/15 07:26:47;;;;;;;4.57;1.40;;;20.10;32.20;;;;;;5056051;28;20510;-84
2022/07/15 07:29:22;;;;;;;8.53;2.00;;;20.00;32.60;;;;;;5055735;28;20460;-83
2022/07/15 07:32:11;;;;;;;8.13;1.43;;;20.10;32.30;;;;;;5056627;28;20469;-83
2022/07/15 07:38:10;;;;;;;4.80;1.43;;;20.10;29.70;;;;;;5054297;28;20877;-83
2022/07/15 07:44:00;;;;;;;8.05;1.92;;;20.80;27.60;;;;;;4994174;28;20807;-84
2022/07/15 07:46:36;;;;;;;7.97;1.50;;;21.30;25.30;;;;;;5058549;28;20199;-85
2022/07/15 07:49:09;;;;;;;5.40;1.30;;;21.90;26.60;;;;;;5058174;28;20450;-85
2022/07/15 07:52:07;;;;;;;5.70;1.40;;;22.50;24.80;;;;;;5058833;28;20982;-85
2022/07/15 07:54:51;;;;;;;5.40;1.30;;;22.00;22.70;;;;;;5057969;28;20459;-85
2022/07/15 07:57:22;;;;;;;5.77;1.73;;;22.40;24.00;;;;;;5056906;28;20451;-84
2022/07/15 08:00:19;;;;;;;6.20;1.63;;;23.00;20.70;;;;;;5057763;28;20484;-85
2022/07/15 08:05:53;;;;;;;6.43;1.13;;;22.00;22.40;;;;;;5058639;28;20898;-85
2022/07/15 08:08:38;;;;;;;5.30;1.10;;;21.80;20.30;;;;;;5058744;28;20508;-85
2022/07/15 08:11:13;;;;;;;6.77;1.37;;;21.50;17.60;;;;;;5058332;28;20473;-84
2022/07/15 08:13:53;;;;;;;7.97;1.20;;;20.80;20.30;;;;;;5057924;28;20442;-85
2022/07/15 08:16:42;;;;;;;5.63;1.23;;;20.60;20.20;;;;;;5058349;28;20463;-85
2022/07/15 08:19:25;;;;;;;5.20;1.20;;;21.00;21.50;;;;;;5056572;28;20462;-85
2022/07/15 08:22:22;;;;;;;6.00;1.30;;;21.90;16.10;;;;;;5056202;28;20488;-85
2022/07/15 08:28:20;;;;;;;5.37;1.37;;;22.50;18.10;;;;;;5053826;28;20453;-85
2022/07/15 08:31:09;;;;;;;;;;;;;;;;;;;;;
2022/07/15 08:33:42;;;;;;;4.93;1.20;;;23.00;5.60;;;;;;5054829;28;20868;-86
2022/07/15 08:36:32;;;;;;;6.93;1.30;;;23.00;3.80;;;;;;5054651;28;20450;-85
2022/07/15 08:39:06;;;;;;;5.90;1.43;;;23.70;9.20;;;;;;5056662;28;20501;-85
2022/07/15 08:44:49;;;;;;;6.70;1.20;;;22.80;7.70;;;;;;5037849;28;20827;-85
2022/07/15 08:47:34;;;;;;;5.80;1.20;;;23.40;5.70;;;;;;5057433;28;20455;-85
2022/07/15 08:50:18;;;;;;;5.10;1.17;;;22.50;5.40;;;;;;5055758;28;20837;-85
2022/07/15 08:53:31;;;;;;;5.90;1.03;;;23.20;5.10;;;;;;5055871;28;20959;-85
2022/07/15 08:56:09;;;;;;;5.90;1.00;;;24.20;1.70;;;;;;5055639;28;20448;-85
2022/07/15 08:58:40;;;;;;;5.47;1.13;;;24.20;1.00;;;;;;5056344;28;20463;-86
2022/07/15 09:01:18;;;;;;;5.70;1.10;;;24.30;3.20;;;;;;5055396;28;20444;-86
2022/07/15 09:03:54;;;;;;;6.97;1.20;;;24.50;3.20;;;;;;5055818;28;20483;-86
2022/07/15 09:06:46;;;;;;;5.60;0.83;;;24.60;5.60;;;;;;5056195;28;20455;-85
2022/07/15 09:10:07;;;;;;;6.30;1.10;;;24.60;1.20;;;;;;5054910;28;20447;-85
2022/07/15 09:13:04;;;;;;;4.73;1.00;;;25.10;1.00;;;;;;5054329;28;20525;-85
2022/07/15 09:15:43;;;;;;;4.70;0.97;;;24.20;1.00;;;;;;5056360;28;20823;-85
2022/07/15 09:18:23;;;;;;;6.80;1.27;;;24.20;1.00;;;;;;5056369;28;20446;-85
2022/07/15 09:24:37;;;;;;;5.10;1.00;;;22.40;2.80;;;;;;5002276;28;20507;-85
2022/07/15 09:27:52;;;;;;;5.83;1.00;;;21.30;5.50;;;;;;5059050;28;20948;-85
2022/07/15 09:33:45;;;;;;;4.97;1.10;;;20.50;9.70;;;;;;5059060;28;20979;-85
2022/07/15 09:36:53;;;;;;;4.90;1.10;;;19.80;9.90;;;;;;4958142;29;20469;-85
2022/07/15 09:39:33;;;;;;;6.43;1.30;;;21.10;9.00;;;;;;4999104;28;20459;-85
2022/07/15 09:42:11;;;;;;;4.80;0.93;;;22.10;2.30;;;;;;5058680;28;20474;-85
2022/07/15 09:44:43;;;;;;;6.83;1.20;;;23.10;1.00;;;;;;5057714;28;20519;-85
2022/07/15 09:47:24;;;;;;;4.43;1.00;;;23.80;1.00;;;;;;5056896;28;20459;-85
2022/07/15 09:50:06;;;;;;;5.00;1.27;;;25.00;1.00;;;;;;5055391;28;20455;-84
2022/07/15 09:59:27;;;;;;;7.13;1.17;;;26.40;1.00;;;;;;5039005;28;20447;-84
2022/07/15 10:02:47;;;;;;;5.00;1.03;;;25.80;1.00;;;;;;5057021;28;20543;-84
2022/07/15 10:05:32;;;;;;;5.70;1.30;;;25.40;1.00;;;;;;5057660;28;20515;-83
2022/07/15 10:17:52;;;;;;;4.60;1.07;;;23.80;1.00;;;;;;5023092;28;20451;-84
2022/07/15 10:24:19;;;;;;;4.77;1.10;;;23.60;1.00;;;;;;5011175;28;20485;-83
2022/07/15 10:27:29;;;;;;;5.50;1.23;;;23.60;1.00;;;;;;5017654;28;20526;-83
2022/07/15 10:30:14;;;;;;;7.30;1.40;;;22.90;1.00;;;;;;5015637;28;20483;-83
2022/07/15 10:36:15;;;;;;;6.70;1.20;;;22.60;1.00;;;;;;5000276;28;20433;-83
2022/07/15 10:39:13;;;;;;;8.10;2.03;;;22.50;2.50;;;;;;5015234;28;20461;-83
2022/07/15 10:42:08;;;;;;;5.00;1.10;;;23.00;2.00;;;;;;5015429;28;20466;-83
2022/07/15 10:45:29;;;;;;;6.93;1.40;;;24.30;1.00;;;;;;5014325;28;20487;-83
2022/07/15 10:55:11;;;;;;;4.17;1.23;;;26.10;1.00;;;;;;4933750;29;20514;-83
2022/07/15 11:01:31;;;;;;;4.27;1.07;;;25.30;1.00;;;;;;4988458;28;20436;-84
2022/07/15 11:04:17;;;;;;;6.40;1.20;;;26.10;1.00;;;;;;5019176;28;20472;-82
2022/07/15 11:10:59;;;;;;;4.40;1.00;;;28.00;1.00;;;;;;5002417;28;20445;-84
2022/07/15 11:16:56;;;;;;;6.30;1.30;;;25.20;1.00;;;;;;5016776;28;20461;-83
2022/07/15 11:19:25;;;;;;;6.60;3.50;;;24.00;1.00;;;;;;5003528;28;20458;-84
2022/07/15 11:25:05;;;;;;;4.67;1.00;;;23.30;1.00;;;;;;5010029;28;20488;-83
2022/07/15 11:31:12;;;;;;;4.00;0.90;;;22.70;1.00;;;;;;4978349;28;20461;-82
2022/07/15 11:33:41;;;;;;;4.00;0.80;;;22.60;1.00;;;;;;5018180;28;20554;-84
2022/07/15 11:36:23;;;;;;;4.07;0.90;;;22.90;1.00;;;;;;5015116;28;20541;-84
2022/07/15 11:38:58;;;;;;;6.53;1.60;;;24.10;1.00;;;;;;5009880;28;20541;-86
2022/07/15 11:44:30;;;;;;;7.30;1.43;;;27.40;1.00;;;;;;5006686;28;20477;-86
2022/07/15 11:47:14;;;;;;;5.60;1.10;;;28.30;1.00;;;;;;4995294;28;20452;-86
2022/07/15 11:50:14;;;;;;;6.77;1.47;;;27.10;1.00;;;;;;5005722;28;20449;-85
2022/07/15 11:55:55;;;;;;;4.87;1.37;;;27.90;1.00;;;;;;4992779;28;20462;-86
2022/07/15 11:58:34;;;;;;;4.97;0.90;;;27.90;1.00;;;;;;4995117;28;20454;-86
2022/07/15 12:07:12;;;;;;;5.30;1.10;;;30.70;1.00;;;;;;5033324;28;20461;-84
2022/07/15 12:10:04;;;;;;;8.13;1.30;;;29.20;1.00;;;;;;5024103;28;20457;-84
2022/07/15 12:13:05;;;;;;;5.33;0.90;;;28.10;1.00;;;;;;5014145;28;20480;-87
2022/07/15 12:15:40;;;;;;;4.50;0.93;;;28.70;1.00;;;;;;4990536;28;20542;-87
2022/07/15 12:18:30;;;;;;;4.47;1.17;;;30.80;1.00;;;;;;4993109;28;20454;-87
2022/07/15 12:24:45;;;;;;;6.67;1.53;;;27.40;1.00;;;;;;4913191;29;21013;-87
2022/07/15 12:30:37;;;;;;;6.27;1.63;;;25.20;1.00;;;;;;4985287;28;20458;-86
2022/07/15 12:33:36;;;;;;;8.93;1.37;;;24.60;1.00;;;;;;4994211;28;20480;-87
2022/07/15 12:39:58;;;;;;;5.80;1.10;;;25.60;1.00;;;;;;4994050;28;20543;-86
2022/07/15 12:43:08;;;;;;;;;;;;;;;;;;;;;
2022/07/15 12:46:04;;;;;;;7.97;1.47;;;24.10;1.00;;;;;;4992054;28;20478;-86
2022/07/15 12:48:52;;;;;;;5.70;1.30;;;26.00;1.00;;;;;;4992500;28;20462;-86
2022/07/15 12:51:54;;;;;;;;;;;;;;;;;;;;;
2022/07/15 12:54:36;;;;;;;5.23;0.97;;;28.40;1.00;;;;;;4993619;28;20445;-87
2022/07/15 13:01:37;;;;;;;6.97;1.20;;;28.50;1.00;;;;;;4993239;28;20897;-87
2022/07/15 13:11:36;;;;;;;;;;;;;;;;;;;;;
2022/07/15 13:26:39;;;;;;;6.07;1.37;;;28.80;1.00;;;;;;4988466;28;20908;-87
2022/07/15 13:36:03;;;;;;;;;;;;;;;;;;;;;
2022/07/15 13:39:25;;;;;;;5.17;1.17;;;25.20;1.00;;;;;;4993691;28;20968;-87
2022/07/15 13:45:29;;;;;;;6.63;1.33;;;23.80;1.00;;;;;;4975807;28;20482;-87
2022/07/15 13:48:55;;;;;;;4.50;1.00;;;23.50;1.00;;;;;;4993333;28;20464;-88
2022/07/15 13:52:22;;;;;;;9.20;1.57;;;23.80;1.00;;;;;;4981112;28;20493;-86
2022/07/15 14:05:06;;;;;;;6.03;1.30;;;27.00;1.00;;;;;;4959776;28;20548;-87
2022/07/15 14:07:44;;;;;;;3.80;0.70;;;27.20;1.00;;;;;;4993473;28;20461;-86
2022/07/15 14:19:33;;;;;;;5.20;1.13;;;25.80;1.00;;;;;;4953245;28;20971;-86
2022/07/15 14:25:35;;;;;;;;;;;;;;;;;;;;;
2022/07/15 14:34:25;;;;;;;7.17;1.53;;;29.60;1.00;;;;;;4985997;28;20464;-88
2022/07/15 14:53:05;;;;;;;5.17;1.50;;;26.90;1.00;;;;;;4979893;28;20466;-88
2022/07/15 14:55:41;;;;;;;6.33;1.47;;;26.20;1.00;;;;;;4995904;28;20454;-87
2022/07/15 14:58:12;;;;;;;5.43;1.20;;;25.40;1.00;;;;;;4996042;28;20453;-87
2022/07/15 15:00:56;;;;;;;4.63;1.10;;;24.90;1.00;;;;;;4996460;28;20489;-87
2022/07/15 15:03:40;;;;;;;4.00;0.80;;;24.60;1.00;;;;;;4995786;28;20551;-86
2022/07/15 15:06:31;;;;;;;6.00;1.17;;;24.70;1.00;;;;;;4995969;28;20500;-87
2022/07/15 15:09:04;;;;;;;8.23;1.30;;;24.80;1.00;;;;;;4996362;28;20454;-87
2022/07/15 15:11:41;;;;;;;5.30;1.30;;;25.10;1.00;;;;;;4996168;28;21001;-87
2022/07/15 15:14:27;;;;;;;9.40;1.40;;;25.40;1.00;;;;;;4995808;28;20546;-87
2022/07/15 15:17:15;;;;;;;4.77;1.10;;;25.50;1.00;;;;;;4984008;28;20821;-87
2022/07/15 15:20:06;;;;;;;4.17;0.70;;;24.80;1.00;;;;;;4996654;28;20458;-86
2022/07/15 15:23:02;;;;;;;6.90;1.33;;;24.40;1.00;;;;;;4995606;28;20477;-87
2022/07/15 15:32:16;;;;;;;;;;;;;;;;;;;;;
2022/07/15 15:34:53;;;;;;;5.13;0.80;;;25.50;1.00;;;;;;4995521;28;20474;-87
2022/07/15 15:40:38;;;;;;;5.70;1.30;;;26.40;1.00;;;;;;4994214;28;20450;-87
2022/07/15 15:43:56;;;;;;;8.13;1.10;;;26.90;1.00;;;;;;4995198;28;20470;-87
2022/07/15 15:46:50;;;;;;;6.10;1.47;;;27.10;1.00;;;;;;4971375;28;20497;-87
2022/07/15 15:49:36;;;;;;;7.53;1.10;;;29.20;1.00;;;;;;4995162;28;20450;-87
2022/07/15 15:55:50;;;;;;;4.30;1.00;;;26.10;1.00;;;;;;4950545;28;20823;-86
2022/07/15 16:07:50;;;;;;;5.00;1.33;;;25.80;1.00;;;;;;5032849;28;20471;-87
2022/07/15 16:11:01;;;;;;;5.37;1.47;;;26.20;1.00;;;;;;5034109;28;20455;-87
2022/07/15 16:13:40;;;;;;;4.77;1.23;;;27.00;1.00;;;;;;5014285;28;20420;-86
2022/07/15 16:16:40;;;;;;;4.37;0.90;;;27.20;1.00;;;;;;5015441;28;20426;-87
2022/07/15 16:19:07;;;;;;;6.17;1.13;;;26.50;1.00;;;;;;5014362;28;20949;-86
2022/07/15 16:24:19;;;;;;;3.90;0.90;;;24.80;1.00;;;;;;5014802;28;20505;-86
2022/07/15 16:26:45;;;;;;;4.30;1.00;;;24.20;1.00;;;;;;5014804;28;20504;-86
2022/07/15 16:29:12;;;;;;;5.30;1.00;;;23.80;1.00;;;;;;5014390;28;20459;-86
2022/07/15 16:31:40;;;;;;;4.10;0.90;;;23.60;1.00;;;;;;5014258;28;20480;-86
2022/07/15 16:34:07;;;;;;;8.30;1.27;;;24.00;1.00;;;;;;5014452;28;20467;-87
2022/07/15 16:36:53;;;;;;;7.57;1.40;;;25.60;1.00;;;;;;5013768;28;20448;-86
2022/07/15 16:39:49;;;;;;;4.23;0.80;;;27.60;1.00;;;;;;5013305;28;20445;-87
2022/07/15 16:43:05;;;;;;;4.27;1.00;;;29.20;1.00;;;;;;5013812;28;20477;-86
2022/07/15 16:46:23;;;;;;;7.90;1.20;;;29.60;1.00;;;;;;5011980;28;20564;-87
2022/07/15 16:56:08;;;;;;;;;;;;;;;;;;;;;
2022/07/15 16:59:01;;;;;;;4.97;1.00;;;25.00;1.00;;;;;;4980098;28;20556;-86
2022/07/15 17:08:14;;;;;;;;;;;;;;;;;;;;;
2022/07/15 17:10:56;;;;;;;3.70;0.77;;;26.60;1.00;;;;;;5011709;28;20459;-86
2022/07/15 17:13:47;;;;;;;6.60;0.83;;;27.30;1.00;;;;;;5013764;28;20477;-87
2022/07/15 17:17:00;;;;;;;5.20;1.00;;;27.70;1.00;;;;;;5013057;28;20455;-87
2022/07/15 17:20:05;;;;;;;4.00;0.90;;;29.00;1.00;;;;;;5001623;28;20448;-86
2022/07/15 17:22:52;;;;;;;3.70;0.77;;;29.40;1.00;;;;;;5008212;28;20476;-86
2022/07/15 17:28:46;;;;;;;5.03;1.10;;;28.90;1.00;;;;;;5012309;28;20464;-86
2022/07/15 17:40:26;;;;;;;;;;;;;;;;;;;;;
2022/07/15 17:43:12;;;;;;;4.67;0.80;;;28.50;1.00;;;;;;5013074;28;20985;-86
2022/07/15 17:45:43;;;;;;;5.03;0.90;;;27.60;1.00;;;;;;5013291;28;20479;-86
2022/07/15 17:48:58;;;;;;;4.20;1.17;;;27.40;1.00;;;;;;5013455;28;20456;-87
2022/07/15 17:51:59;;;;;;;;;;;;;;;;;;;;;
2022/07/15 18:00:38;;;;;;;4.23;0.80;;;28.20;1.00;;;;;;5012702;28;20554;-86
2022/07/15 18:06:54;;;;;;;5.53;1.00;;;27.70;1.00;;;;;;5015621;28;20997;-86
2022/07/15 18:13:28;;;;;;;;;;;;;;;;;;;;;
2022/07/15 18:15:55;;;;;;;4.50;1.00;;;28.60;1.00;;;;;;5006203;28;20468;-82
2022/07/15 18:18:26;;;;;;;5.10;1.20;;;28.80;1.00;;;;;;5002821;28;20455;-84
2022/07/15 18:20:52;;;;;;;3.90;1.00;;;28.90;1.00;;;;;;5004116;28;20591;-83
2022/07/15 18:23:20;;;;;;;4.40;1.00;;;29.00;1.00;;;;;;5013529;28;20468;-82
2022/07/15 18:25:47;;;;;;;4.43;1.10;;;29.20;1.00;;;;;;5018198;28;20472;-83
2022/07/15 18:28:14;;;;;;;11.50;1.00;;;29.40;1.00;;;;;;5005954;28;20449;-83
2022/07/15 18:30:40;;;;;;;5.13;1.30;;;29.50;1.00;;;;;;4999467;28;20460;-83
2022/07/15 18:33:07;;;;;;;5.03;1.00;;;29.50;1.00;;;;;;5019344;28;20851;-83
2022/07/15 18:35:35;;;;;;;4.57;1.37;;;29.60;1.00;;;;;;5012782;28;20449;-83
2022/07/15 18:38:02;;;;;;;6.87;1.00;;;29.10;1.00;;;;;;5000572;28;20460;-83
2022/07/15 18:40:29;;;;;;;5.43;1.10;;;28.50;1.00;;;;;;5014951;28;20454;-82
2022/07/15 18:42:55;;;;;;;5.80;1.20;;;28.00;1.00;;;;;;5007953;28;20475;-82
2022/07/15 18:45:22;;;;;;;4.60;1.20;;;27.30;1.00;;;;;;5003187;28;20480;-83
2022/07/15 18:47:49;;;;;;;5.80;1.40;;;27.10;1.00;;;;;;5008905;28;20477;-83
2022/07/15 18:50:16;;;;;;;5.80;1.20;;;26.90;1.00;;;;;;5014531;28;20453;-83
2022/07/15 18:52:44;;;;;;;4.73;1.10;;;26.50;1.00;;;;;;5001869;28;21000;-83
2022/07/15 18:55:10;;;;;;;6.67;1.00;;;26.10;1.00;;;;;;5001620;28;20470;-84
2022/07/15 18:57:37;;;;;;;3.90;1.03;;;25.70;1.00;;;;;;5011076;28;20456;-83
2022/07/15 19:00:05;;;;;;;5.23;1.07;;;25.30;1.00;;;;;;4997852;28;20479;-84
2022/07/15 19:02:32;;;;;;;9.33;1.47;;;25.10;1.00;;;;;;5005353;28;20488;-83
2022/07/15 19:04:59;;;;;;;3.90;0.93;;;24.90;1.00;;;;;;5016029;28;20456;-83
2022/07/15 19:07:27;;;;;;;4.30;1.07;;;24.40;1.00;;;;;;5017618;28;20781;-84
2022/07/15 19:09:56;;;;;;;8.50;1.90;;;24.00;1.00;;;;;;5017879;28;20565;-84
2022/07/15 19:12:22;;;;;;;3.80;1.10;;;23.50;1.00;;;;;;5018611;28;20478;-84
2022/07/15 19:14:49;;;;;;;6.80;1.57;;;23.20;1.00;;;;;;5011642;28;20535;-84
2022/07/15 19:17:16;;;;;;;6.37;1.23;;;22.80;1.00;;;;;;5014707;28;20455;-82
2022/07/15 19:19:43;;;;;;;4.33;1.20;;;22.20;1.00;;;;;;5012527;28;20453;-84
2022/07/15 19:22:10;;;;;;;4.40;1.63;;;21.20;1.00;;;;;;5018273;28;20469;-84
2022/07/15 19:24:37;;;;;;;6.13;1.30;;;20.60;1.00;;;;;;5011953;28;20454;-86
2022/07/15 19:27:06;;;;;;;9.97;1.40;;;20.20;2.60;;;;;;5018206;28;20519;-84
2022/07/15 19:29:34;;;;;;;4.77;1.80;;;19.80;4.40;;;;;;4997263;28;20464;-83
2022/07/15 19:32:00;;;;;;;5.03;1.83;;;19.50;5.90;;;;;;5002124;28;20525;-83
2022/07/15 19:34:27;;;;;;;9.83;1.87;;;19.10;8.10;;;;;;4998994;28;20460;-83
2022/07/15 19:36:54;;;;;;;4.30;1.30;;;18.60;10.00;;;;;;5012038;28;20463;-84
2022/07/15 19:39:21;;;;;;;6.00;1.40;;;18.10;11.80;;;;;;5018257;28;20459;-83
2022/07/15 19:41:48;;;;;;;5.60;1.57;;;17.80;14.30;;;;;;5005949;28;20484;-84
2022/07/15 19:44:16;;;;;;;6.30;1.47;;;17.40;16.70;;;;;;4998432;28;20468;-84
2022/07/15 19:46:44;;;;;;;5.40;1.47;;;17.20;17.70;;;;;;4999534;28;20496;-84
2022/07/15 19:49:10;;;;;;;6.27;1.40;;;16.90;19.60;;;;;;4998553;28;20483;-84
2022/07/15 19:51:38;;;;;;;5.87;1.50;;;16.80;20.90;;;;;;4998040;28;20480;-84
2022/07/15 19:54:08;;;;;;;7.93;2.03;;;16.50;21.50;;;;;;5007946;28;20797;-85
2022/07/15 20:52:00;;;;;;;10.87;3.73;;;14.30;41.90;;;;;;6087090;22;20403;-86
2022/07/15 20:54:28;;;;;;;16.27;3.73;;;14.30;43.60;;;;;;5016258;28;20453;-86
2022/07/15 20:56:55;;;;;;;21.63;3.60;;;14.30;45.80;;;;;;5015254;28;20451;-86
2022/07/15 20:59:23;;;;;;;17.33;3.53;;;14.30;47.00;;;;;;5015914;28;20476;-86
2022/07/15 21:01:50;;;;;;;15.73;2.87;;;14.20;47.80;;;;;;5015315;28;20835;-86
2022/07/15 21:04:17;;;;;;;8.00;2.33;;;14.10;47.70;;;;;;5017144;28;20476;-86
2022/07/15 21:06:44;;;;;;;9.93;2.37;;;14.00;48.40;;;;;;5018530;28;20544;-87
2022/07/15 21:09:13;;;;;;;8.70;1.80;;;13.90;49.20;;;;;;5017985;28;20449;-86
2022/07/15 21:11:39;;;;;;;7.13;2.37;;;13.90;50.40;;;;;;5018106;28;20483;-86
2022/07/15 21:14:06;;;;;;;5.73;1.93;;;13.80;50.20;;;;;;5017567;28;20445;-86
2022/07/15 21:16:33;;;;;;;10.33;2.13;;;13.70;51.80;;;;;;5017884;28;20965;-86
2022/07/15 21:19:00;;;;;;;5.97;1.90;;;13.60;52.90;;;;;;5018192;28;20457;-86
2022/07/15 21:21:27;;;;;;;4.80;1.90;;;13.60;53.30;;;;;;5019763;28;20552;-86
2022/07/15 21:23:54;;;;;;;18.17;2.57;;;13.50;54.10;;;;;;5018831;28;20467;-85
2022/07/15 21:29:06;;;;;;;5.07;2.17;;;13.40;55.70;;;;;;5016538;28;20541;-86
2022/07/15 21:31:33;;;;;;;9.73;2.40;;;13.40;55.70;;;;;;5019291;28;20568;-86
2022/07/15 21:34:00;;;;;;;5.80;2.20;;;13.40;55.70;;;;;;5017806;28;20833;-86
2022/07/15 21:36:27;;;;;;;6.50;2.20;;;13.40;56.00;;;;;;5017403;28;20507;-87
2022/07/15 21:38:54;;;;;;;6.73;2.67;;;13.30;57.20;;;;;;5018178;28;20894;-86
2022/07/15 21:41:22;;;;;;;7.37;2.50;;;13.30;56.70;;;;;;5017329;28;20465;-86
2022/07/15 21:43:50;;;;;;;9.13;2.50;;;13.20;58.70;;;;;;5017402;28;20455;-86
2022/07/15 21:46:17;;;;;;;7.73;2.37;;;13.10;59.00;;;;;;5018107;28;20481;-86
2022/07/15 21:48:44;;;;;;;7.40;2.27;;;13.20;59.20;;;;;;5017680;28;20473;-87
2022/07/15 21:51:12;;;;;;;11.83;2.57;;;13.00;59.00;;;;;;5017926;28;20954;-86
2022/07/15 21:53:39;;;;;;;5.80;2.50;;;13.10;60.60;;;;;;5017887;28;20493;-86
2022/07/15 21:56:09;;;;;;;5.43;2.40;;;13.00;61.10;;;;;;5016408;28;20985;-86
2022/07/15 21:58:37;;;;;;;4.40;2.10;;;13.10;61.70;;;;;;5016602;28;20902;-87
2022/07/15 22:01:05;;;;;;;6.73;2.50;;;12.90;61.40;;;;;;5017049;28;20492;-86
2022/07/15 22:03:32;;;;;;;5.73;2.67;;;12.90;61.40;;;;;;5017187;28;20544;-87
2022/07/15 22:05:58;;;;;;;5.03;2.60;;;12.90;60.90;;;;;;5017230;28;20484;-86
2022/07/15 22:08:26;;;;;;;5.13;2.40;;;12.80;60.70;;;;;;5016649;28;20453;-86
2022/07/15 22:10:52;;;;;;;7.70;2.83;;;12.70;62.50;;;;;;5016604;28;20457;-87
2022/07/15 22:13:19;;;;;;;5.93;2.80;;;12.80;62.40;;;;;;5016058;28;20519;-86
2022/07/15 22:15:48;;;;;;;5.20;2.33;;;12.70;63.40;;;;;;5015928;28;20513;-86
2022/07/15 22:18:15;;;;;;;5.60;2.43;;;12.60;62.50;;;;;;5016392;28;20616;-86
2022/07/15 22:20:41;;;;;;;5.40;2.73;;;12.60;61.50;;;;;;5015612;28;20880;-86
2022/07/15 22:23:08;;;;;;;6.67;2.77;;;12.60;63.30;;;;;;5016539;28;20543;-86
2022/07/15 22:25:36;;;;;;;5.50;2.53;;;12.50;63.30;;;;;;5016801;28;20464;-86
2022/07/15 22:28:02;;;;;;;5.60;2.80;;;12.50;63.30;;;;;;5016279;28;20564;-86
2022/07/15 22:30:29;;;;;;;7.20;2.70;;;12.50;63.30;;;;;;5016328;28;20513;-86
2022/07/15 22:32:58;;;;;;;5.90;3.20;;;12.40;63.20;;;;;;5015402;28;20922;-87
2022/07/15 22:35:24;;;;;;;6.50;2.77;;;12.30;63.80;;;;;;5016402;28;20484;-86
2022/07/15 22:37:51;;;;;;;8.30;3.13;;;12.30;65.10;;;;;;5017451;28;20457;-86
2022/07/15 22:40:18;;;;;;;5.97;2.73;;;12.30;65.80;;;;;;5017775;28;20496;-86
2022/07/15 22:42:45;;;;;;;7.40;3.63;;;12.30;64.40;;;;;;5017410;28;20473;-87
2022/07/15 22:45:13;;;;;;;6.47;3.63;;;12.20;65.80;;;;;;5016859;28;20453;-86
2022/07/15 22:47:42;;;;;;;7.63;4.57;;;12.10;67.40;;;;;;5019573;28;20504;-86
2022/07/15 22:50:25;;;;;;;6.47;3.83;;;12.10;68.70;;;;;;5020092;28;20973;-86
2022/07/15 22:53:10;;;;;;;7.53;4.50;;;12.20;69.90;;;;;;5019995;28;20550;-86
2022/07/15 22:56:04;;;;;;;9.57;5.37;;;12.10;71.00;;;;;;5021257;28;20453;-86
2022/07/15 22:58:57;;;;;;;6.20;4.63;;;12.10;72.40;;;;;;5012480;28;20452;-86
2022/07/15 23:01:31;;;;;;;6.30;5.00;;;12.10;71.60;;;;;;5020926;28;20500;-86
2022/07/15 23:04:16;;;;;;;5.83;5.00;;;12.10;73.40;;;;;;5020116;28;20461;-86
2022/07/15 23:10:36;;;;;;;10.30;4.97;;;12.00;74.20;;;;;;5012841;28;20449;-86